Latest Weather Observations for Browse Island

IDW60801

Issued at 4:09 pm WST Thursday 28 May 2015 (issued every 30 minutes, with the page automatically refreshed every 10 minutes)

About weather observations | Map of weather stations | Latest weather observations for WA | Other Formats
Station Details ID: 200784 Name: BROWSE ISLAND Lat: -14.11 Lon: 123.55 Height: 3.7 m
Data from the previous 72 hours. | See also: Recent months for locations in Western Australia
Date/Time
WST
Temp
°C
App
Temp
°C
Dew
Point
Rel
Hum
%
Delta-T
°C
Wind Press
QNH
hPa
Press
MSL
hPa
Rain
since 9 am
mm
Dir
 
Spd
km/h
Gust
km/h
Spd
kts
Gust
kts
28/04:00pm 28.4 - - - - SE 13 15 7 8 1011.0 1011.5 -
28/03:30pm 29.0 - - - - SE 15 17 8 9 1011.0 - -
28/03:00pm 28.8 - - - - SE 17 - 9 - 1011.0 1011.1 -
28/02:30pm 28.0 - - - - SE 19 - 10 - 1011.0 - -
28/02:00pm 28.5 - - - - SE 17 - 9 - 1011.0 1011.4 -
28/01:30pm 29.0 - - - - SE 17 - 9 - 1011.0 - -
28/01:00pm 29.0 - - - - SE 19 - 10 - 1012.0 1011.9 -
28/12:30pm 29.0 - - - - SSE 19 - 10 - 1012.0 - -
28/12:00pm 29.1 - - - - SSE 17 - 9 - 1012.0 1012.6 -
28/11:30am 29.0 - - - - SSE 17 - 9 - 1013.0 - -
28/11:00am 28.9 - - - - SSE 17 - 9 - 1013.0 1013.3 -
28/10:30am 29.0 - - - - SSE 19 - 10 - 1013.0 - -
28/10:00am 28.5 - - - - SSE 20 - 11 - 1014.0 1013.9 -
28/09:30am 29.0 - - - - SSE 20 - 11 - 1014.0 - -
28/09:00am 28.4 - - - - SSE 15 - 8 - 1014.0 1014.0 -
28/08:30am 28.0 - - - - SSE 15 - 8 - 1013.0 - -
28/08:00am 28.1 - - - - SSE 17 - 9 - 1013.0 1013.6 -
28/07:30am 28.0 - - - - SSE 15 - 8 - 1013.0 - -
28/07:00am 27.8 - - - - SSE 13 - 7 - 1013.0 1013.1 -
28/06:30am 28.0 - - - - SSE 13 - 7 - 1012.0 - -
28/06:00am 27.7 - - - - SE 13 11 7 6 1012.0 1012.5 -
28/05:30am 28.0 - - - - SE 11 - 6 - 1012.0 - -
28/05:00am 27.7 - - - - SE 11 - 6 - 1012.0 1012.1 -
28/04:30am 28.0 - - - - SE 13 - 7 - 1012.0 - -
28/04:00am 27.5 - - - - SE 13 - 7 - 1012.0 1011.9 -
28/03:30am 27.0 - - - - SE 13 - 7 - 1012.0 - -
28/03:00am 27.5 - - - - SE 15 - 8 - 1011.0 1011.8 -
28/02:30am 28.0 - - - - SSE 13 - 7 - 1012.0 - -
28/02:00am 27.4 - - - - SSE 13 - 7 - 1012.0 1012.0 -
28/01:30am 27.0 - - - - SSE 13 - 7 - 1012.0 - -
28/01:00am 27.6 - - - - SSE 13 - 7 - 1012.0 1012.5 -
28/12:30am 28.0 - - - - S 13 - 7 - 1012.0 - -
28/12:00am 27.6 - - - - S 13 13 7 7 1012.0 1012.8 -
 
Date/Time
WST
Temp
°C
App
Temp
°C
Dew
Point
Rel
Hum
%
Delta-T
°C
Wind Press
QNH
hPa
Press
MSL
hPa
Rain
since 9 am
mm
Dir
 
Spd
km/h
Gust
km/h
Spd
kts
Gust
kts
27/11:30pm 28.0 - - - - S 13 - 7 - 1013.0 - -
27/11:00pm 27.5 - - - - S 11 - 6 - 1013.0 1013.4 -
27/10:30pm 28.0 - - - - S 11 - 6 - 1013.0 - -
27/10:00pm 27.6 - - - - S 11 - 6 - 1013.0 1013.5 -
27/09:30pm 28.0 - - - - S 9 - 5 - 1013.0 - -
27/09:00pm 27.6 - - - - S 9 - 5 - 1013.0 1013.4 -
27/08:30pm 28.0 - - - - S 9 - 5 - 1013.0 - -
27/08:00pm 27.6 - - - - SSE 9 - 5 - 1013.0 1013.3 -
27/07:30pm 28.0 - - - - SSE 9 - 5 - 1013.0 - -
27/07:00pm 27.9 - - - - S 11 - 6 - 1013.0 1013.1 -
27/06:30pm 28.0 - - - - S 11 - 6 - 1012.0 - -
27/06:00pm 27.9 - - - - S 11 13 6 7 1012.0 1012.4 -
27/05:30pm 28.0 - - - - SSE 9 - 5 - 1012.0 - -
27/05:00pm 28.1 - - - - SSE 9 - 5 - 1011.0 1011.8 -
27/04:30pm 28.0 - - - - SSE 9 - 5 - 1011.0 - -
27/04:00pm 28.3 - - - - S 11 - 6 - 1011.0 1011.3 -
27/03:30pm 28.0 - - - - S 9 - 5 - 1011.0 - -
27/03:00pm 28.9 - - - - S 11 - 6 - 1011.0 1011.0 -
27/02:30pm 29.0 - - - - S 13 - 7 - 1011.0 - -
27/02:00pm 28.3 - - - - S 13 - 7 - 1011.0 1011.1 -
27/01:30pm 29.0 - - - - SSE 11 - 6 - 1011.0 - -
27/01:00pm 28.7 - - - - SSE 15 - 8 - 1012.0 1012.1 -
27/12:30pm 28.0 - - - - S 17 - 9 - 1012.0 - -
27/12:00pm 28.6 - - - - SSE 15 - 8 - 1013.0 1013.0 -
27/11:30am 29.0 - - - - SSE 15 - 8 - 1013.0 - -
27/11:00am 29.2 - - - - SSE 15 - 8 - 1014.0 1014.0 -
27/10:30am 29.0 - - - - SSE 17 - 9 - 1014.0 - -
27/10:00am 28.6 - - - - SSE 17 - 9 - 1014.0 1014.7 -
27/09:30am 29.0 - - - - SE 13 - 7 - 1015.0 - -
27/09:00am 28.4 - - - - SE 13 - 7 - 1015.0 1015.0 -
27/08:30am 28.0 - - - - SE 11 - 6 - 1015.0 - -
27/08:00am 28.2 - - - - ESE 13 - 7 - 1014.0 1014.7 -
27/07:30am 28.0 - - - - ESE 13 - 7 - 1014.0 - -
27/07:00am 27.6 - - - - ESE 15 - 8 - 1014.0 1014.2 -
27/06:30am 27.0 - - - - ESE 17 - 9 - 1014.0 - -
27/06:00am 27.4 - - - - ESE 17 - 9 - 1013.0 1013.6 -
27/05:30am 27.0 - - - - SE 17 - 9 - 1013.0 - -
27/05:00am 27.5 - - - - ESE 15 - 8 - 1013.0 1013.3 -
27/04:30am 27.0 - - - - SE 15 - 8 - 1013.0 - -
27/04:00am 27.4 - - - - SE 13 - 7 - 1013.0 1012.9 -
27/03:30am 27.0 - - - - SE 13 - 7 - 1013.0 - -
27/03:00am 27.3 - - - - SE 15 - 8 - 1013.0 1013.1 -
27/02:30am 27.0 - - - - SE 15 - 8 - 1013.0 - -
27/02:00am 27.4 - - - - ESE 15 - 8 - 1013.0 1013.4 -
27/01:30am 28.0 - - - - SE 13 - 7 - 1013.0 - -
27/01:00am 27.7 - - - - ESE 13 - 7 - 1014.0 1014.0 -
27/12:30am 28.0 - - - - ESE 13 - 7 - 1014.0 - -
27/12:00am 27.6 - - - - ESE 13 - 7 - 1014.0 1014.5 -
 
Date/Time
WST
Temp
°C
App
Temp
°C
Dew
Point
Rel
Hum
%
Delta-T
°C
Wind Press
QNH
hPa
Press
MSL
hPa
Rain
since 9 am
mm
Dir
 
Spd
km/h
Gust
km/h
Spd
kts
Gust
kts
26/11:30pm 28.0 - - - - SE 13 - 7 - 1014.0 - -
26/11:00pm 27.8 - - - - SE 9 - 5 - 1015.0 1015.1 -
26/10:30pm 28.0 - - - - SE 9 - 5 - 1015.0 - -
26/10:00pm 27.9 - - - - SE 7 - 4 - 1015.0 1015.6 -
26/09:30pm 28.0 - - - - E 9 - 5 - 1015.0 - -
26/09:00pm 27.8 - - - - E 9 - 5 - 1016.0 1016.0 -
26/08:30pm 28.0 - - - - E 9 - 5 - 1016.0 - -
26/08:00pm 28.0 - - - - ESE 9 - 5 - 1015.0 1015.8 -
26/07:30pm 28.0 - - - - E 11 - 6 - 1015.0 - -
26/07:00pm 27.6 - - - - E 9 - 5 - 1015.0 1015.2 -
26/06:30pm 28.0 - - - - E 13 - 7 - 1014.0 - -
26/06:00pm 27.6 - - - - E 13 - 7 - 1014.0 1014.3 -
26/05:30pm 28.0 - - - - E 13 - 7 - 1014.0 - -
26/05:00pm 27.9 - - - - E 13 - 7 - 1014.0 1013.9 -
26/04:30pm 28.0 - - - - ESE 13 - 7 - 1013.0 - -
26/04:00pm 28.7 - - - - E 13 - 7 - 1013.0 1013.2 -
26/03:30pm 29.0 - - - - E 13 - 7 - 1013.0 - -
26/03:00pm 28.7 - - - - E 15 - 8 - 1013.0 1013.0 -
26/02:30pm 29.0 - - - - E 15 - 8 - 1013.0 - -
26/02:00pm 29.4 - - - - E 15 - 8 - 1013.0 1013.0 -
26/01:30pm 29.0 - - - - E 15 - 8 - 1013.0 - -
26/01:00pm 28.6 - - - - ENE 17 - 9 - 1013.0 1013.6 -
26/12:30pm 30.0 - - - - E 17 - 9 - 1014.0 - -
26/12:00pm 28.9 - - - - ENE 15 - 8 - 1014.0 1014.6 -
26/11:30am 29.0 - - - - E 17 - 9 - 1015.0 - -
26/11:00am 28.9 - - - - E 15 - 8 - 1015.0 1015.7 -
26/10:30am 29.0 - - - - E 17 - 9 - 1016.0 - -
26/10:00am 29.1 - - - - E 15 - 8 - 1016.0 1016.4 -
26/09:30am 29.0 - - - - ENE 15 - 8 - 1016.0 - -
26/09:00am 28.5 - - - - ENE 13 - 7 - 1016.0 1016.8 -
26/08:30am 29.0 - - - - ENE 15 - 8 - 1016.0 - -
26/08:00am 28.1 - - - - ENE 17 - 9 - 1016.0 1016.4 -
26/07:30am 28.0 - - - - ENE 17 - 9 - 1016.0 - -
26/07:00am 27.6 - - - - ENE 17 - 9 - 1016.0 1016.2 -
26/06:30am 27.0 - - - - ENE 19 - 10 - 1016.0 - -
26/06:00am 27.3 - - - - ENE 17 - 9 - 1015.0 1015.7 -
26/05:30am 27.0 - - - - NE 17 - 9 - 1015.0 - -
26/05:00am 27.3 - - - - ENE 19 - 10 - 1015.0 1014.9 -
26/04:30am 27.0 - - - - NE 20 - 11 - 1014.0 - -
26/04:00am 27.3 - - - - NE 20 - 11 - 1014.0 1014.7 -
26/03:30am 27.0 - - - - NE 22 - 12 - 1014.0 - -
26/03:00am 27.3 - - - - NE 22 - 12 - 1014.0 1014.5 -
26/02:30am 27.0 - - - - NE 22 - 12 - 1014.0 - -
26/02:00am 27.1 - - - - NE 22 - 12 - 1014.0 1014.4 -
26/01:30am 27.0 - - - - NE 24 - 13 - 1014.0 - -
26/01:00am 27.3 - - - - NE 26 - 14 - 1015.0 1015.0 -
26/12:30am 27.0 - - - - NE 26 - 14 - 1015.0 - -
26/12:00am 26.9 - - - - NE 24 - 13 - 1015.0 1015.3 -
 
Date/Time
WST
Temp
°C
App
Temp
°C
Dew
Point
Rel
Hum
%
Delta-T
°C
Wind Press
QNH
hPa
Press
MSL
hPa
Rain
since 9 am
mm
Dir
 
Spd
km/h
Gust
km/h
Spd
kts
Gust
kts
25/11:30pm 27.0 - - - - NE 26 - 14 - 1015.0 - -
25/11:00pm 26.9 - - - - NE 22 - 12 - 1015.0 1015.7 -
25/10:30pm 27.0 - - - - NE 24 - 13 - 1016.0 - -
25/10:00pm 27.0 - - - - NE 26 - 14 - 1016.0 1016.0 -
25/09:30pm 27.0 - - - - NE 26 - 14 - 1016.0 - -
25/09:00pm 27.2 - - - - NE 30 - 16 - 1016.0 1015.9 -
25/08:30pm 27.0 - - - - NE 28 - 15 - 1015.0 - -
25/08:00pm 27.3 - - - - ENE 28 - 15 - 1015.0 1015.6 -
25/07:30pm 27.0 - - - - ENE 26 - 14 - 1015.0 - -
25/07:00pm 27.0 - - - - ENE 26 - 14 - 1015.0 1014.9 -
25/06:30pm 27.0 - - - - ENE 24 - 13 - 1014.0 - -
25/06:00pm 27.2 - - - - NE 28 - 15 - 1014.0 1014.3 -
25/05:30pm 27.0 - - - - NE 26 - 14 - 1014.0 - -
25/05:00pm 27.3 - - - - ENE 26 - 14 - 1013.0 1013.8 -
25/04:30pm 28.0 - - - - ENE 26 - 14 - 1013.0 - -

Other Formats:

Comma delimited format used in spreadsheet applications
http://www.bom.gov.au/fwo/IDW60801/IDW60801.94103.axf

JavaScript Object Notation format (JSON) in row-major order
http://www.bom.gov.au/fwo/IDW60801/IDW60801.94103.json